Time;durP1;ratioP1;P1;durP2;ratioP2;P2;SDS_P1;SDS_P2;PMS_P1;PMS_P2;Temp;Humidity;BMP_temperature;BMP_pressure;BME280_temperature;BME280_humidity;BME280_pressure;Samples;Min_cycle;Max_cycle;Signal;HPM_P1;HPM_P2
2022/03/13 00:02:13;;;;;;;62.63;56.17;;;;;;;-5.26;100.00;102412.59;5110675;28;20055;-82
2022/03/13 00:04:40;;;;;;;67.00;60.20;;;;;;;-5.05;100.00;102413.47;5110538;28;20094;-81
2022/03/13 00:07:12;;;;;;;64.60;56.13;;;;;;;-5.15;100.00;102401.78;5110837;28;20048;-81
2022/03/13 00:09:39;;;;;;;65.80;59.22;;;;;;;-5.03;100.00;102415.97;5109814;28;20116;-80
2022/03/13 00:12:08;;;;;;;64.53;57.92;;;;;;;-5.06;100.00;102406.56;5101063;28;20051;-81
2022/03/13 00:14:41;;;;;;;66.18;59.83;;;;;;;-5.03;100.00;102397.84;5110834;28;20464;-81
2022/03/13 00:19:52;;;;;;;64.18;57.63;;;;;;;-4.98;100.00;102404.50;5085167;27;20467;-81
2022/03/13 00:22:18;;;;;;;63.50;57.35;;;;;;;-4.94;100.00;102390.50;5081197;28;20088;-81
2022/03/13 00:24:45;;;;;;;60.25;54.60;;;;;;;-4.94;100.00;102387.91;5076132;28;20079;-80
2022/03/13 00:27:12;;;;;;;61.60;55.92;;;;;;;-4.88;100.00;102377.28;5077975;28;20045;-79
2022/03/13 00:29:40;;;;;;;60.58;54.83;;;;;;;-4.91;100.00;102382.59;5079887;28;20060;-81
2022/03/13 00:32:08;;;;;;;57.50;52.03;;;;;;;-4.96;100.00;102384.56;5076433;28;20378;-80
2022/03/13 00:34:36;;;;;;;67.68;61.30;;;;;;;-4.86;100.00;102378.06;5071566;28;20113;-80
2022/03/13 00:37:04;;;;;;;64.03;58.22;;;;;;;-4.98;100.00;102376.00;5080410;28;20550;-81
2022/03/13 00:43:18;;;;;;;54.13;48.88;;;;;;;-5.06;100.00;102375.47;5080657;27;20372;-82
2022/03/13 00:45:45;;;;;;;56.35;51.13;;;;;;;-5.09;100.00;102375.59;5070218;28;20053;-80
2022/03/13 00:48:12;;;;;;;55.90;50.70;;;;;;;-5.54;100.00;102363.63;5071172;28;20106;-81
2022/03/13 00:50:39;;;;;;;58.78;53.13;;;;;;;-5.34;100.00;102366.25;5070500;28;20052;-79
2022/03/13 00:53:06;;;;;;;55.55;50.30;;;;;;;-5.56;100.00;102357.69;5070181;28;20114;-81
2022/03/13 00:55:32;;;;;;;58.53;53.30;;;;;;;-5.70;100.00;102366.00;5060941;28;20479;-81
2022/03/13 00:57:59;;;;;;;63.95;58.20;;;;;;;-5.49;100.00;102356.53;5069868;28;20052;-81
2022/03/13 01:00:27;;;;;;;64.35;58.25;;;;;;;-5.80;100.00;102354.31;5070325;28;20052;-81
2022/03/13 01:02:54;;;;;;;79.05;60.92;;;;;;;-5.81;100.00;102350.91;5070732;28;20045;-81
2022/03/13 01:05:23;;;;;;;57.58;51.70;;;;;;;-5.48;100.00;102347.84;5070040;28;20040;-80
2022/03/13 01:07:50;;;;;;;74.70;65.18;;;;;;;-5.36;100.00;102360.28;5070172;28;20056;-81
2022/03/13 01:10:17;;;;;;;84.22;67.15;;;;;;;-5.45;100.00;102346.88;5060746;28;20053;-80
2022/03/13 01:12:44;;;;;;;70.70;61.90;;;;;;;-5.52;100.00;102351.47;5069317;28;20114;-81
2022/03/13 01:15:11;;;;;;;55.08;49.88;;;;;;;-5.67;100.00;102339.97;5069926;28;20057;-82
2022/03/13 01:17:39;;;;;;;57.63;51.67;;;;;;;-5.36;100.00;102342.16;5069821;28;20049;-81
2022/03/13 01:20:15;;;;;;;67.18;60.85;;;;;;;-5.31;100.00;102339.38;5069780;28;20056;-79
2022/03/13 01:22:42;;;;;;;57.85;52.42;;;;;;;-5.35;100.00;102343.88;5066868;28;20040;-81
2022/03/13 01:25:09;;;;;;;58.10;52.45;;;;;;;-5.31;100.00;102344.56;5069079;28;20064;-81
2022/03/13 01:27:36;;;;;;;58.70;53.17;;;;;;;-5.36;100.00;102338.72;5069864;28;20040;-81
2022/03/13 01:30:04;;;;;;;59.78;54.03;;;;;;;-5.38;100.00;102335.38;5070172;28;20049;-81
2022/03/13 01:32:32;;;;;;;62.20;56.40;;;;;;;-5.32;100.00;102337.72;5069107;28;20041;-80
2022/03/13 01:35:00;;;;;;;57.17;51.58;;;;;;;-5.11;100.00;102330.78;5069649;28;20052;-79
2022/03/13 01:37:30;;;;;;;59.83;53.92;;;;;;;-5.21;100.00;102330.31;5070012;28;20048;-80
2022/03/13 01:42:55;;;;;;;58.25;52.85;;;;;;;-5.14;100.00;102324.00;5081920;27;20749;-79
2022/03/13 01:45:25;;;;;;;62.45;56.55;;;;;;;-5.11;100.00;102323.03;5078882;28;20048;-82
2022/03/13 01:47:53;;;;;;;71.10;63.60;;;;;;;-5.16;100.00;102330.13;5078405;28;20076;-80
2022/03/13 01:50:20;;;;;;;65.57;59.03;;;;;;;-5.38;100.00;102319.84;5079975;28;20045;-81
2022/03/13 01:52:50;;;;;;;70.15;63.15;;;;;;;-4.98;100.00;102320.75;5084124;28;20044;-80
2022/03/13 01:55:17;;;;;;;63.42;57.13;;;;;;;-4.93;100.00;102322.22;5080107;28;20469;-81
2022/03/13 01:57:47;;;;;;;60.22;54.13;;;;;;;-4.87;100.00;102319.38;5080439;28;20491;-79
2022/03/13 02:00:19;;;;;;;60.20;54.30;;;;;;;-4.59;100.00;102320.75;5085458;28;20216;-81
2022/03/13 02:02:47;;;;;;;68.82;62.17;;;;;;;-4.89;100.00;102316.00;5084131;28;20070;-82
2022/03/13 02:05:26;;;;;;;61.55;55.80;;;;;;;-4.73;100.00;102316.16;5080052;28;20077;-80
2022/03/13 02:07:53;;;;;;;59.30;53.65;;;;;;;-4.84;100.00;102308.88;5084168;28;20052;-80
2022/03/13 02:10:20;;;;;;;63.22;57.13;;;;;;;-4.65;100.00;102319.25;5081331;28;20109;-80
2022/03/13 02:12:47;;;;;;;68.90;62.63;;;;;;;-4.74;100.00;102322.25;5080039;28;20044;-81
2022/03/13 02:15:15;;;;;;;64.15;58.35;;;;;;;-4.66;100.00;102311.53;5076003;28;20048;-80
2022/03/13 02:17:42;;;;;;;62.92;57.22;;;;;;;-4.85;100.00;102312.34;5081100;28;20056;-81
2022/03/13 02:20:15;;;;;;;67.47;61.15;;;;;;;-4.71;100.00;102311.75;5077063;28;20133;-81
2022/03/13 02:22:46;;;;;;;58.42;52.90;;;;;;;-4.84;100.00;102316.66;5082394;28;20105;-81
2022/03/13 02:25:23;;;;;;;61.47;55.88;;;;;;;-4.76;100.00;102312.88;5082066;28;20051;-82
2022/03/13 02:30:34;;;;;;;59.25;53.88;;;;;;;-4.71;100.00;102308.31;5091334;27;20370;-80
2022/03/13 02:33:01;;;;;;;59.20;53.40;;;;;;;-4.61;100.00;102312.19;5073344;28;20512;-80
2022/03/13 02:35:29;;;;;;;58.97;53.70;;;;;;;-4.85;100.00;102317.53;5076294;28;20056;-82
2022/03/13 02:37:57;;;;;;;56.45;51.05;;;;;;;-4.78;100.00;102307.75;5084653;28;20135;-81
2022/03/13 02:40:25;;;;;;;57.28;52.08;;;;;;;-5.01;100.00;102311.34;5076922;28;20049;-83
2022/03/13 02:45:37;;;;;;;61.83;55.90;;;;;;;-5.08;100.00;102312.53;5091611;27;20377;-81
2022/03/13 02:48:06;;;;;;;55.75;50.63;;;;;;;-4.91;100.00;102309.19;5083471;28;20048;-84
2022/03/13 02:50:34;;;;;;;64.43;57.88;;;;;;;-4.79;100.00;102311.25;5077366;28;20048;-81
2022/03/13 02:53:01;;;;;;;57.92;52.72;;;;;;;-5.14;100.00;102303.25;5079530;28;20057;-80
2022/03/13 02:55:28;;;;;;;61.80;56.33;;;;;;;-4.90;100.00;102311.72;5075666;28;20049;-81
2022/03/13 02:57:54;;;;;;;63.10;57.25;;;;;;;-4.82;100.00;102311.38;5075283;28;20071;-82
2022/03/13 03:02:58;;;;;;;64.78;58.58;;;;;;;-4.47;100.00;102311.56;5054589;28;20052;-80
2022/03/13 03:05:24;;;;;;;60.78;55.03;;;;;;;-4.62;100.00;102313.09;5070140;28;20118;-79
2022/03/13 03:07:52;;;;;;;61.97;56.25;;;;;;;-4.61;100.00;102325.97;5070271;28;20113;-81
2022/03/13 03:10:18;;;;;;;62.20;56.60;;;;;;;-4.51;100.00;102317.78;5069588;28;20044;-81
2022/03/13 03:15:58;;;;;;;58.08;52.63;;;;;;;-4.75;100.00;102320.59;5088842;27;20377;-80
2022/03/13 03:18:25;;;;;;;77.45;69.45;;;;;;;-4.56;100.00;102314.59;5059762;28;20056;-80
2022/03/13 03:20:52;;;;;;;69.22;62.05;;;;;;;-4.91;100.00;102306.59;5070377;28;20442;-80
2022/03/13 03:23:19;;;;;;;79.80;71.50;;;;;;;-4.99;100.00;102317.31;5070539;28;20056;-81
2022/03/13 03:25:46;;;;;;;57.38;51.88;;;;;;;-5.03;100.00;102313.16;5070565;28;20045;-80
2022/03/13 03:28:17;;;;;;;71.43;64.25;;;;;;;-5.03;100.00;102320.09;5071198;28;20045;-80
2022/03/13 03:30:44;;;;;;;75.70;65.10;;;;;;;-5.07;100.00;102306.44;5064521;28;20045;-81
2022/03/13 03:35:51;;;;;;;74.95;67.13;;;;;;;-4.85;100.00;102301.16;5086449;27;20765;-81
2022/03/13 03:38:18;;;;;;;72.15;64.70;;;;;;;-4.71;100.00;102305.72;5070692;28;20122;-80
2022/03/13 03:40:44;;;;;;;74.72;66.95;;;;;;;-4.71;100.00;102311.75;5070259;28;20048;-81
2022/03/13 03:45:51;;;;;;;66.93;60.70;;;;;;;-4.65;100.00;102315.84;5070946;27;20739;-80
2022/03/13 03:48:20;;;;;;;59.40;53.80;;;;;;;-4.78;100.00;102312.94;5065975;28;20060;-81
2022/03/13 03:50:47;;;;;;;67.25;60.97;;;;;;;-4.68;100.00;102319.41;5079386;28;20049;-81
2022/03/13 03:53:14;;;;;;;61.65;56.28;;;;;;;-4.83;100.00;102312.31;5084231;28;20117;-81
2022/03/13 03:55:40;;;;;;;57.40;52.15;;;;;;;-4.77;100.00;102306.84;5076622;28;20053;-81
2022/03/13 03:58:07;;;;;;;57.63;52.00;;;;;;;-4.80;100.00;102313.91;5080887;28;20072;-82
2022/03/13 04:00:34;;;;;;;59.28;53.58;;;;;;;-4.90;100.00;102311.72;5081211;28;20045;-81
2022/03/13 04:03:03;;;;;;;64.85;58.33;;;;;;;-4.79;100.00;102310.41;5075300;28;20052;-81
2022/03/13 04:05:29;;;;;;;64.38;58.17;;;;;;;-4.81;100.00;102312.22;5076145;28;20522;-83
2022/03/13 04:07:56;;;;;;;65.28;59.53;;;;;;;-4.72;100.00;102312.69;5075890;28;20044;-80
2022/03/13 04:10:23;;;;;;;67.80;61.45;;;;;;;-4.76;100.00;102318.03;5080285;28;20222;-81
2022/03/13 04:12:50;;;;;;;58.17;52.67;;;;;;;-4.94;100.00;102324.88;5083335;28;20450;-82
2022/03/13 04:15:17;;;;;;;59.90;54.33;;;;;;;-4.89;100.00;102321.19;5075396;28;20087;-80
2022/03/13 04:17:43;;;;;;;60.50;54.78;;;;;;;-4.76;100.00;102328.41;5075132;28;20049;-81
2022/03/13 04:20:12;;;;;;;56.47;51.13;;;;;;;-4.66;100.00;102312.41;5075889;28;20052;-81
2022/03/13 04:22:39;;;;;;;65.40;59.25;;;;;;;-4.97;100.00;102310.28;5080270;28;20508;-79
2022/03/13 04:25:06;;;;;;;75.95;67.82;;;;;;;-5.01;100.00;102315.69;5079741;28;20510;-81
2022/03/13 04:30:31;;;;;;;69.60;62.00;;;;;;;-4.97;100.00;102315.47;5130433;27;20390;-82
2022/03/13 04:32:58;;;;;;;69.93;62.40;;;;;;;-4.78;100.00;102319.84;5113670;28;20047;-82
2022/03/13 04:35:25;;;;;;;64.72;57.65;;;;;;;-4.88;100.00;102319.41;5105331;28;20044;-82
2022/03/13 04:37:52;;;;;;;64.35;57.58;;;;;;;-4.95;100.00;102320.59;5100177;28;20055;-81
2022/03/13 04:40:19;;;;;;;65.65;58.65;;;;;;;-4.98;100.00;102316.41;5101184;28;20464;-82
2022/03/13 04:42:46;;;;;;;63.72;56.97;;;;;;;-4.81;100.00;102326.03;5101517;28;20077;-81
2022/03/13 04:45:13;;;;;;;68.05;59.50;;;;;;;-4.93;100.00;102323.94;5105418;28;20132;-82
2022/03/13 04:47:41;;;;;;;67.72;60.55;;;;;;;-4.71;100.00;102322.13;5106302;28;20049;-80
2022/03/13 04:50:09;;;;;;;63.88;56.95;;;;;;;-4.73;100.00;102323.94;5100499;28;20121;-79
2022/03/13 04:52:36;;;;;;;66.32;59.55;;;;;;;-4.63;100.00;102326.94;5099362;28;20048;-81
2022/03/13 04:58:01;;;;;;;61.97;55.63;;;;;;;-4.61;100.00;102323.38;5104252;27;20397;-81
2022/03/13 05:00:27;;;;;;;63.92;57.35;;;;;;;-4.64;100.00;102322.69;5091348;28;20044;-82
2022/03/13 05:02:54;;;;;;;60.05;54.33;;;;;;;-4.73;100.00;102325.69;5089637;28;20119;-81
2022/03/13 05:08:02;;;;;;;58.05;52.28;;;;;;;-4.39;100.00;102335.38;5080264;27;20398;-82
2022/03/13 05:10:35;;;;;;;55.00;49.80;;;;;;;-4.66;100.00;102332.28;5070706;28;20118;-80
2022/03/13 05:13:02;;;;;;;57.60;51.95;;;;;;;-4.37;100.00;102331.81;5070680;28;20044;-81
2022/03/13 05:15:29;;;;;;;56.35;50.40;;;;;;;-4.43;100.00;102329.50;5070549;28;20106;-81
2022/03/13 05:17:55;;;;;;;55.13;49.40;;;;;;;-4.08;100.00;102342.63;5068778;28;20108;-80
2022/03/13 05:20:22;;;;;;;75.47;67.32;;;;;;;-3.97;100.00;102336.91;5064204;28;20488;-80
2022/03/13 05:22:49;;;;;;;74.55;66.53;;;;;;;-3.83;100.00;102333.69;5066127;28;20229;-80
2022/03/13 05:25:17;;;;;;;86.63;74.43;;;;;;;-3.84;100.00;102332.84;5070396;28;20045;-80
2022/03/13 05:27:44;;;;;;;94.82;78.68;;;;;;;-3.67;100.00;102345.00;5069096;28;20401;-80
2022/03/13 05:30:12;;;;;;;85.13;74.55;;;;;;;-3.67;100.00;102344.16;5071153;28;20054;-80
2022/03/13 05:32:39;;;;;;;79.63;68.88;;;;;;;-3.85;100.00;102341.53;5061190;28;20482;-81
2022/03/13 05:35:06;;;;;;;85.57;70.93;;;;;;;-3.51;100.00;102345.09;5068900;28;20049;-80
2022/03/13 05:37:33;;;;;;;93.20;67.35;;;;;;;-3.64;100.00;102338.84;5069682;28;20481;-83
2022/03/13 05:40:00;;;;;;;60.85;54.40;;;;;;;-3.60;100.00;102343.81;5070233;28;20114;-79
2022/03/13 05:42:28;;;;;;;58.65;52.60;;;;;;;-3.39;100.00;102339.28;5060262;28;20052;-81
2022/03/13 05:44:55;;;;;;;52.70;47.67;;;;;;;-3.13;100.00;102339.78;5066820;28;20049;-80
2022/03/13 05:47:23;;;;;;;52.35;47.53;;;;;;;-2.81;100.00;102345.94;5068950;28;20440;-81
2022/03/13 05:49:50;;;;;;;50.47;45.65;;;;;;;-2.77;100.00;102327.47;5070474;28;20472;-79
2022/03/13 05:52:17;;;;;;;48.15;43.55;;;;;;;-2.72;100.00;102352.41;5064949;28;20539;-81
2022/03/13 05:54:44;;;;;;;51.35;46.80;;;;;;;-2.49;100.00;102346.84;5065811;28;20102;-79
2022/03/13 05:57:11;;;;;;;52.08;46.97;;;;;;;-2.50;100.00;102331.31;5066573;28;20378;-81
2022/03/13 05:59:39;;;;;;;54.70;49.45;;;;;;;-2.28;100.00;102338.81;5065536;28;20049;-81
2022/03/13 06:02:08;;;;;;;59.55;53.40;;;;;;;-2.17;100.00;102333.88;5066608;28;20074;-79
2022/03/13 06:04:37;;;;;;;59.53;52.95;;;;;;;-1.97;100.00;102337.97;5059315;28;20048;-79
2022/03/13 06:07:04;;;;;;;67.82;55.20;;;;;;;-1.99;100.00;102345.88;5057953;28;20049;-80
2022/03/13 06:09:32;;;;;;;91.05;69.22;;;;;;;-1.99;100.00;102345.88;5058062;28;20055;-79
2022/03/13 06:11:59;;;;;;;122.32;73.68;;;;;;;-1.74;100.00;102340.13;5059557;28;20041;-81
2022/03/13 06:14:26;;;;;;;70.90;54.47;;;;;;;-1.74;100.00;102347.97;5060417;28;20063;-80
2022/03/13 06:16:54;;;;;;;106.70;69.53;;;;;;;-1.69;100.00;102340.72;5066676;28;20070;-81
2022/03/13 06:19:21;;;;;;;269.23;129.13;;;;;;;-1.54;100.00;102340.75;5048521;28;20048;-80
2022/03/13 06:21:49;;;;;;;50.85;46.28;;;;;;;-1.33;100.00;102331.75;5056040;28;20103;-81
2022/03/13 06:24:17;;;;;;;49.15;45.00;;;;;;;-1.24;100.00;102336.41;5056156;28;20051;-80
2022/03/13 06:27:01;;;;;;;53.50;48.58;;;;;;;-0.99;100.00;102334.97;5084436;27;20408;-80
2022/03/13 06:29:29;;;;;;;132.05;74.75;;;;;;;-1.08;100.00;102336.34;5071394;28;20390;-81
2022/03/13 06:31:56;;;;;;;114.13;67.95;;;;;;;-0.87;100.00;102334.22;5068432;28;20080;-81
2022/03/13 06:34:22;;;;;;;62.97;52.90;;;;;;;-0.72;100.00;102335.09;5063510;28;20049;-80
2022/03/13 06:36:49;;;;;;;187.95;89.53;;;;;;;-0.58;100.00;102336.84;5063194;28;20121;-80
2022/03/13 06:39:16;;;;;;;82.40;57.75;;;;;;;-0.34;100.00;102331.88;5071279;28;20048;-80
2022/03/13 06:41:43;;;;;;;53.22;48.80;;;;;;;-0.07;100.00;102340.59;5069775;28;20056;-81
2022/03/13 06:44:12;;;;;;;47.70;44.40;;;;;;;0.06;100.00;102335.44;5069417;28;20053;-82
2022/03/13 06:46:39;;;;;;;49.45;45.30;;;;;;;0.13;100.00;102336.72;5070683;28;20459;-80
2022/03/13 06:49:05;;;;;;;47.70;44.40;;;;;;;0.24;100.00;102338.63;5051476;28;20112;-78
2022/03/13 06:51:33;;;;;;;47.17;43.97;;;;;;;0.01;100.00;102332.28;5031370;28;20081;-81
2022/03/13 06:53:59;;;;;;;45.65;42.45;;;;;;;0.49;100.00;102335.28;5031177;28;20488;-81
2022/03/13 06:56:27;;;;;;;45.35;42.17;;;;;;;0.23;100.00;102335.19;5030920;28;20500;-80
2022/03/13 06:58:55;;;;;;;46.70;43.53;;;;;;;0.43;100.00;102333.91;5031155;28;20046;-80
2022/03/13 07:01:24;;;;;;;50.40;46.70;;;;;;;0.54;100.00;102334.97;5019889;28;20069;-81
2022/03/13 07:03:50;;;;;;;52.83;48.55;;;;;;;0.73;100.00;102342.44;5030357;28;20054;-79
2022/03/13 07:06:23;;;;;;;48.50;44.97;;;;;;;0.55;100.00;102334.06;5036141;28;20081;-79
2022/03/13 07:08:50;;;;;;;48.25;44.95;;;;;;;0.33;100.00;102330.19;5039294;28;20448;-78
2022/03/13 07:11:18;;;;;;;47.80;44.53;;;;;;;0.32;100.00;102325.09;5041488;28;20046;-80
2022/03/13 07:17:08;;;;;;;47.97;44.70;;;;;;;0.79;98.41;102331.59;4340431;28;10001307;-81
2022/03/13 07:19:34;;;;;;;50.35;46.85;;;;;;;0.81;96.36;102327.91;5031504;28;20107;-80
2022/03/13 07:22:01;;;;;;;50.67;47.15;;;;;;;1.29;97.93;102335.97;5037394;28;20113;-79
2022/03/13 07:24:28;;;;;;;48.78;45.45;;;;;;;1.49;92.75;102329.38;5043705;28;20088;-81
2022/03/13 07:26:55;;;;;;;51.35;47.95;;;;;;;1.23;89.35;102325.09;5027956;28;20471;-78
2022/03/13 07:29:21;;;;;;;50.17;46.33;;;;;;;1.41;90.49;102328.22;5028405;28;20422;-78
2022/03/13 07:31:48;;;;;;;51.97;48.38;;;;;;;1.49;86.05;102328.53;5028268;28;20057;-79
2022/03/13 07:34:16;;;;;;;50.42;46.95;;;;;;;1.27;94.22;102331.78;5037080;28;20062;-79
2022/03/13 07:36:43;;;;;;;52.00;48.58;;;;;;;1.53;87.11;102329.97;5025440;28;20042;-78
2022/03/13 07:39:14;;;;;;;52.95;49.22;;;;;;;1.58;90.38;102336.59;5009858;28;20046;-82
2022/03/13 07:41:43;;;;;;;50.58;46.97;;;;;;;1.62;87.47;102324.09;5009829;28;20164;-80
2022/03/13 07:44:14;;;;;;;51.15;47.65;;;;;;;2.01;93.77;102325.66;5018475;28;20391;-80
2022/03/13 07:46:42;;;;;;;51.60;48.10;;;;;;;1.32;81.35;102327.91;5019500;28;20081;-80
2022/03/13 07:49:08;;;;;;;74.07;69.20;;;;;;;2.88;83.52;102333.28;5018307;28;20041;-79
2022/03/13 07:51:37;;;;;;;70.60;65.68;;;;;;;2.53;80.58;102332.31;5018479;28;20042;-79
2022/03/13 07:54:04;;;;;;;80.63;74.90;;;;;;;2.11;78.58;102325.00;5018838;28;20061;-81
2022/03/13 07:56:31;;;;;;;75.57;70.25;;;;;;;1.36;84.88;102328.53;5020844;28;20108;-79
2022/03/13 07:58:59;;;;;;;71.85;66.90;;;;;;;2.23;83.69;102332.78;5021026;28;20065;-81
2022/03/13 08:01:26;;;;;;;74.90;69.60;;;;;;;1.99;81.16;102335.41;5019765;28;20042;-80
2022/03/13 08:03:53;;;;;;;71.93;66.72;;;;;;;1.88;84.55;102324.06;5019324;28;20050;-78
2022/03/13 08:06:20;;;;;;;79.35;73.45;;;;;;;2.47;81.23;102330.16;5017805;28;20046;-79
2022/03/13 08:08:49;;;;;;;80.97;75.05;;;;;;;2.63;75.96;102329.03;5018005;28;20127;-79
2022/03/13 08:11:16;;;;;;;81.15;75.25;;;;;;;2.80;79.59;102331.22;5018993;28;20101;-81
2022/03/13 08:13:42;;;;;;;77.53;72.07;;;;;;;2.16;88.00;102321.09;5019545;28;20058;-80
2022/03/13 08:16:10;;;;;;;80.95;74.85;;;;;;;2.61;83.42;102321.28;5019657;28;20050;-80
2022/03/13 08:18:37;;;;;;;81.82;75.75;;;;;;;2.67;78.21;102318.19;5019900;28;20050;-80
2022/03/13 08:21:05;;;;;;;76.82;71.30;;;;;;;2.79;92.71;102320.84;5019582;28;20132;-81
2022/03/13 08:23:32;;;;;;;79.38;73.60;;;;;;;2.77;87.22;102322.75;5020690;28;20054;-79
2022/03/13 08:26:00;;;;;;;79.90;74.10;;;;;;;4.83;90.45;102316.75;5019500;28;20054;-80
2022/03/13 08:28:26;;;;;;;76.63;71.13;;;;;;;4.50;71.24;102322.19;5018022;28;20486;-80
2022/03/13 08:30:53;;;;;;;77.88;72.22;;;;;;;3.57;72.51;102320.06;5020035;28;20119;-79
2022/03/13 08:33:20;;;;;;;82.90;76.70;;;;;;;3.63;72.25;102319.56;5019167;28;20097;-80
2022/03/13 08:35:47;;;;;;;77.53;72.00;;;;;;;5.32;72.27;102319.63;5019267;28;20474;-78
2022/03/13 08:38:15;;;;;;;85.05;78.75;;;;;;;4.23;64.78;102328.75;5019006;28;20375;-80
2022/03/13 08:40:42;;;;;;;79.50;73.50;;;;;;;4.34;64.29;102330.53;5020325;28;20115;-80
2022/03/13 08:43:10;;;;;;;86.00;79.30;;;;;;;3.10;70.94;102332.47;5020078;28;20050;-80
2022/03/13 08:45:37;;;;;;;87.78;80.82;;;;;;;3.59;77.07;102340.00;5020567;28;20050;-79
2022/03/13 08:48:04;;;;;;;85.53;78.93;;;;;;;4.75;75.35;102334.13;5018774;28;20054;-80
2022/03/13 08:50:30;;;;;;;82.47;76.38;;;;;;;2.88;78.69;102333.28;5019726;28;20049;-80
2022/03/13 08:52:58;;;;;;;81.90;75.85;;;;;;;2.92;80.74;102332.09;5019361;28;20139;-80
2022/03/13 08:58:08;;;;;;;76.25;70.65;;;;;;;2.35;75.27;102327.63;5088968;27;20981;-80
2022/03/13 09:00:37;;;;;;;79.32;73.35;;;;;;;3.64;86.69;102329.16;5076632;28;20056;-81
2022/03/13 09:03:05;;;;;;;82.03;75.82;;;;;;;4.31;88.65;102336.03;5083966;28;20059;-79
2022/03/13 09:05:31;;;;;;;84.10;77.55;;;;;;;4.96;82.57;102336.78;5085852;28;20052;-81
2022/03/13 09:07:58;;;;;;;98.90;90.55;;;;;;;5.48;68.48;102329.69;5084886;28;20044;-83
2022/03/13 09:10:25;;;;;;;82.85;75.93;;;;;;;4.03;68.74;102333.00;5084019;28;20059;-81
2022/03/13 09:12:52;;;;;;;81.30;75.15;;;;;;;4.33;68.42;102336.75;5090116;28;20070;-81
2022/03/13 09:15:20;;;;;;;87.57;80.40;;;;;;;4.28;70.76;102331.84;5079445;28;20106;-81
2022/03/13 09:17:53;;;;;;;87.55;80.25;;;;;;;4.20;71.03;102334.25;5081369;28;20045;-80
2022/03/13 09:20:20;;;;;;;85.80;78.38;;;;;;;5.00;78.99;102335.56;5079777;28;20078;-81
2022/03/13 09:22:47;;;;;;;79.03;73.35;;;;;;;3.36;73.54;102328.69;5086125;28;20543;-82
2022/03/13 09:28:10;;;;;;;84.25;78.00;;;;;;;6.78;62.64;102318.06;5106738;27;20397;-80
2022/03/13 09:30:43;;;;;;;79.15;73.13;;;;;;;5.28;64.87;102326.13;5097671;28;20052;-81
2022/03/13 09:33:12;;;;;;;77.90;72.15;;;;;;;5.53;63.16;102321.38;5094732;28;20113;-80
2022/03/13 09:35:39;;;;;;;84.45;77.85;;;;;;;4.24;62.13;102319.91;5094213;28;20049;-80
2022/03/13 09:38:06;;;;;;;86.40;79.60;;;;;;;5.74;66.44;102301.88;5095035;28;20117;-80
2022/03/13 09:40:33;;;;;;;84.07;77.57;;;;;;;6.84;66.58;102314.84;5096025;28;20110;-82
2022/03/13 09:43:00;;;;;;;82.05;75.60;;;;;;;4.94;70.56;102315.84;5096265;28;20049;-79
2022/03/13 09:45:29;;;;;;;80.80;74.50;;;;;;;5.80;58.76;102302.31;5097607;28;20052;-80
2022/03/13 09:47:56;;;;;;;86.32;79.13;;;;;;;6.65;57.86;102306.94;5097560;28;20048;-80
2022/03/13 09:50:23;;;;;;;83.90;77.30;;;;;;;7.05;55.51;102295.31;5096068;28;20048;-80
2022/03/13 09:52:50;;;;;;;84.80;78.10;;;;;;;7.82;58.25;102286.16;5095103;28;20121;-80
2022/03/13 09:55:18;;;;;;;84.78;77.78;;;;;;;4.57;59.53;102291.78;5097887;28;20110;-80
2022/03/13 09:57:48;;;;;;;82.93;76.35;;;;;;;6.45;65.28;102294.75;5094949;28;20610;-81
2022/03/13 10:00:17;;;;;;;82.13;75.45;;;;;;;6.80;64.38;102286.19;5098087;28;20071;-80
2022/03/13 10:02:45;;;;;;;86.53;79.43;;;;;;;8.38;53.53;102285.09;5094723;28;20143;-80
2022/03/13 10:05:14;;;;;;;80.10;73.68;;;;;;;9.08;55.43;102284.22;5096259;28;20137;-80
2022/03/13 10:07:59;;;;;;;81.03;74.57;;;;;;;7.68;56.98;102271.63;5097250;28;20044;-79
2022/03/13 10:10:28;;;;;;;81.97;75.10;;;;;;;7.16;60.95;102278.44;5099430;28;20044;-80
2022/03/13 10:12:55;;;;;;;55.97;52.25;;;;;;;4.48;60.27;102274.97;5096349;28;20056;-82
2022/03/13 10:15:25;;;;;;;53.03;49.67;;;;;;;5.68;63.01;102276.03;5099082;28;20400;-81
2022/03/13 10:17:53;;;;;;;56.60;52.55;;;;;;;7.47;53.60;102279.81;5095972;28;20052;-81
2022/03/13 10:20:23;;;;;;;56.15;52.35;;;;;;;8.07;48.18;102278.47;5095043;28;20117;-80
2022/03/13 10:23:05;;;;;;;56.05;52.30;;;;;;;8.73;47.15;102274.56;5096328;28;20135;-80
2022/03/13 10:25:35;;;;;;;55.90;52.20;;;;;;;8.53;46.45;102281.84;5093379;28;20127;-81
2022/03/13 10:28:13;;;;;;;55.08;51.38;;;;;;;6.79;47.08;102281.91;5093903;28;20306;-80
2022/03/13 10:33:20;;;;;;;56.42;52.35;;;;;;;7.28;46.83;102272.00;5150459;27;20623;-82
2022/03/13 10:35:48;;;;;;;55.05;51.22;;;;;;;6.75;48.95;102275.25;5142615;27;20176;-80
2022/03/13 10:38:17;;;;;;;57.30;53.30;;;;;;;5.71;47.26;102281.03;5141733;27;20047;-80
2022/03/13 10:40:45;;;;;;;56.90;52.85;;;;;;;6.53;50.68;102276.38;5144445;27;20111;-80
2022/03/13 10:43:18;;;;;;;55.90;51.95;;;;;;;7.05;48.31;102267.09;5135850;27;20043;-83
2022/03/13 10:45:51;;;;;;;55.25;51.22;;;;;;;7.26;50.90;102269.50;5155280;27;20063;-81
2022/03/13 10:48:28;;;;;;;58.75;54.55;;;;;;;8.10;50.06;102267.59;5147612;27;20059;-81
2022/03/13 10:50:58;;;;;;;57.20;53.00;;;;;;;7.64;50.71;102266.81;5147525;27;20051;-81
2022/03/13 10:53:27;;;;;;;55.88;51.75;;;;;;;7.75;47.23;102263.94;5144401;27;20047;-80
2022/03/13 10:56:06;;;;;;;57.63;53.30;;;;;;;6.91;45.23;102256.16;5143488;27;20120;-81
2022/03/13 10:58:35;;;;;;;55.70;51.60;;;;;;;6.76;44.42;102259.25;5135207;27;20043;-82
2022/03/13 11:01:09;;;;;;;52.83;48.85;;;;;;;7.39;47.31;102247.19;5135230;27;20051;-81
2022/03/13 11:03:49;;;;;;;51.97;48.20;;;;;;;6.20;47.19;102252.09;5149747;27;20135;-80
2022/03/13 11:06:16;;;;;;;56.75;52.53;;;;;;;7.03;46.47;102258.47;5152794;27;20395;-81
2022/03/13 11:11:34;;;;;;;58.08;54.15;;;;;;;6.31;42.88;102251.13;5167629;27;20380;-80
2022/03/13 11:14:02;;;;;;;56.78;52.75;;;;;;;7.63;45.28;102254.56;5143422;27;20066;-80
2022/03/13 11:16:31;;;;;;;57.60;53.35;;;;;;;7.48;44.71;102244.50;5148316;27;20478;-79
2022/03/13 11:19:02;;;;;;;58.97;54.78;;;;;;;7.04;44.27;102248.72;5138153;27;20051;-80
2022/03/13 11:21:30;;;;;;;56.30;52.40;;;;;;;6.25;47.81;102247.25;5142932;27;20043;-80
2022/03/13 11:23:57;;;;;;;54.30;50.40;;;;;;;7.29;48.77;102250.72;5147021;27;20116;-80
2022/03/13 11:26:29;;;;;;;55.75;51.65;;;;;;;7.47;48.00;102244.63;5148249;27;20047;-80
2022/03/13 11:29:00;;;;;;;59.80;55.13;;;;;;;7.67;44.22;102240.06;5148183;27;20051;-81
2022/03/13 11:31:32;;;;;;;58.70;54.58;;;;;;;7.07;44.55;102248.44;5138320;27;20055;-81
2022/03/13 11:34:13;;;;;;;;;;;;;;;7.86;43.25;102241.72;5146774;27;20043;-80
2022/03/13 11:36:41;;;;;;;58.00;53.67;;;;;;;9.15;44.57;102241.00;5148993;27;20351;-80
2022/03/13 11:39:10;;;;;;;56.33;52.33;;;;;;;9.59;43.10;102245.28;5141312;27;20047;-81
2022/03/13 11:41:39;;;;;;;56.70;52.55;;;;;;;9.29;45.40;102241.38;5140953;27;20043;-82
2022/03/13 11:44:37;;;;;;;285.65;77.20;;;;;;;9.02;51.72;102245.09;5133769;27;20043;-82
2022/03/13 11:47:20;;;;;;;90.95;56.75;;;;;;;8.14;88.08;102243.31;5142548;27;20479;-81
2022/03/13 11:49:46;;;;;;;;;;;;;;;9.60;49.27;102234.53;5148642;27;20047;-79
2022/03/13 11:52:26;;;;;;;57.25;53.10;;;;;;;9.16;43.06;102237.34;5140916;27;20345;-78
2022/03/13 11:55:00;;;;;;;58.60;54.30;;;;;;;11.47;43.15;102231.75;5148286;27;20049;-81
2022/03/13 11:57:28;;;;;;;56.78;52.40;;;;;;;11.68;42.77;102231.16;5150843;27;20076;-78
2022/03/13 12:00:32;;;;;;;54.08;50.10;;;;;;;12.34;39.01;102231.47;5147663;27;20057;-78
2022/03/13 12:03:08;;;;;;;;;;;;;;;12.23;37.02;102234.59;5141429;27;20047;-79
2022/03/13 12:05:35;;;;;;;54.13;50.13;;;;;;;11.90;37.44;102234.84;5142331;27;19926;-79